createdAt,value
2022-09-09T00:01:45.130Z,1.88
2022-09-09T00:04:22.881Z,2.05
2022-09-09T00:07:17.212Z,2.28
2022-09-09T00:09:50.120Z,2.50
2022-09-09T00:12:20.986Z,2.10
2022-09-09T00:15:15.008Z,2.75
2022-09-09T00:17:56.239Z,2.47
2022-09-09T00:20:51.676Z,2.25
2022-09-09T00:23:26.560Z,2.60
2022-09-09T00:26:12.995Z,2.35
2022-09-09T00:29:09.456Z,2.30
2022-09-09T00:31:38.107Z,2.67
2022-09-09T00:34:15.112Z,2.53
2022-09-09T00:36:44.736Z,2.38
2022-09-09T00:39:36.036Z,2.75
2022-09-09T00:42:19.786Z,2.33
2022-09-09T00:45:25.019Z,2.90
2022-09-09T00:47:52.902Z,2.60
2022-09-09T00:51:14.324Z,2.28
2022-09-09T00:54:14.312Z,2.58
2022-09-09T00:56:57.680Z,2.75
2022-09-09T00:59:48.195Z,2.30
2022-09-09T01:02:19.624Z,3.00
2022-09-09T01:04:46.866Z,2.53
2022-09-09T01:07:19.210Z,3.15
2022-09-09T01:10:00.884Z,3.30
2022-09-09T01:12:28.056Z,3.25
2022-09-09T01:15:15.087Z,2.97
2022-09-09T01:18:00.169Z,2.92
2022-09-09T01:20:40.375Z,3.13
2022-09-09T01:23:07.451Z,2.65
2022-09-09T01:26:04.270Z,3.63
2022-09-09T01:28:36.336Z,2.85
2022-09-09T01:31:09.895Z,3.45
2022-09-09T01:33:42.976Z,3.03
2022-09-09T01:36:14.749Z,4.15
2022-09-09T01:38:49.247Z,3.83
2022-09-09T01:41:17.264Z,3.65
2022-09-09T01:43:50.150Z,3.20
2022-09-09T01:46:18.236Z,3.25
2022-09-09T01:48:45.924Z,3.35
2022-09-09T01:51:13.041Z,3.10
2022-09-09T01:53:45.122Z,3.30
2022-09-09T01:56:30.836Z,3.13
2022-09-09T01:59:14.783Z,3.60
2022-09-09T02:02:09.830Z,3.95
2022-09-09T02:04:50.764Z,4.20
2022-09-09T02:07:23.105Z,4.15
2022-09-09T02:09:58.063Z,3.65
2022-09-09T02:12:28.331Z,3.97
2022-09-09T02:15:03.662Z,3.67
2022-09-09T02:17:41.042Z,4.05
2022-09-09T02:20:15.354Z,3.25
2022-09-09T02:22:56.352Z,3.75
2022-09-09T02:25:27.499Z,3.97
2022-09-09T02:28:02.092Z,3.67
2022-09-09T02:30:31.772Z,4.18
2022-09-09T02:33:00.564Z,3.53
2022-09-09T02:35:41.323Z,3.53
2022-09-09T02:38:13.079Z,3.75
2022-09-09T02:40:49.463Z,4.07
2022-09-09T02:43:19.626Z,3.65
2022-09-09T02:48:48.723Z,3.75
2022-09-09T02:51:44.605Z,3.83
2022-09-09T02:54:25.767Z,3.33
2022-09-09T02:56:57.313Z,3.90
2022-09-09T02:59:32.710Z,3.47
2022-09-09T03:01:59.864Z,3.60
2022-09-09T03:04:28.394Z,3.50
2022-09-09T03:06:57.794Z,3.88
2022-09-09T03:09:26.826Z,3.95
2022-09-09T03:11:55.893Z,3.30
2022-09-09T03:14:25.935Z,4.00
2022-09-09T03:16:53.204Z,4.35
2022-09-09T03:19:20.814Z,3.85
2022-09-09T03:21:48.688Z,4.47
2022-09-09T03:24:15.766Z,4.25
2022-09-09T03:26:45.578Z,4.18
2022-09-09T03:29:15.700Z,4.28
2022-09-09T03:31:43.805Z,4.68
2022-09-09T03:34:11.291Z,4.43
2022-09-09T03:36:38.455Z,4.32
2022-09-09T03:39:06.047Z,4.38
2022-09-09T03:41:33.108Z,4.70
2022-09-09T03:44:01.720Z,4.75
2022-09-09T03:46:32.914Z,4.88
2022-09-09T03:49:00.139Z,4.53
2022-09-09T03:51:27.295Z,4.32
2022-09-09T03:53:56.395Z,4.45
2022-09-09T03:56:23.495Z,4.68
2022-09-09T03:58:50.977Z,4.80
2022-09-09T04:01:19.155Z,4.63
2022-09-09T04:03:47.469Z,4.50
2022-09-09T04:06:16.030Z,4.68
2022-09-09T04:08:46.065Z,3.28
2022-09-09T04:11:14.121Z,4.07
2022-09-09T04:13:42.542Z,4.75
2022-09-09T04:16:14.333Z,4.82
2022-09-09T04:18:43.226Z,4.32
2022-09-09T04:21:11.443Z,4.95
2022-09-09T04:23:38.315Z,4.75
2022-09-09T04:26:06.826Z,4.60
2022-09-09T04:28:36.632Z,4.63
2022-09-09T04:31:07.608Z,4.35
2022-09-09T04:33:39.889Z,5.03
2022-09-09T04:36:08.947Z,4.90
2022-09-09T04:38:36.446Z,4.82
2022-09-09T04:41:03.879Z,5.13
2022-09-09T04:43:32.202Z,4.93
2022-09-09T04:46:00.554Z,4.22
2022-09-09T04:48:28.561Z,4.82
2022-09-09T04:50:59.888Z,4.80
2022-09-09T04:53:27.287Z,4.53
2022-09-09T04:56:02.497Z,4.57
2022-09-09T04:58:30.489Z,4.05
2022-09-09T05:01:04.039Z,4.10
2022-09-09T05:03:31.286Z,4.72
2022-09-09T05:06:05.453Z,4.63
2022-09-09T05:08:32.708Z,5.05
2022-09-09T05:11:00.561Z,4.55
2022-09-09T05:13:31.453Z,4.28
2022-09-09T05:15:58.802Z,3.80
2022-09-09T05:18:25.927Z,4.20
2022-09-09T05:20:54.223Z,5.05
2022-09-09T05:23:21.487Z,4.38
2022-09-09T05:25:57.673Z,4.70
2022-09-09T05:28:33.886Z,4.35
2022-09-09T05:31:05.148Z,4.57
2022-09-09T05:33:34.419Z,4.25
2022-09-09T05:36:04.179Z,4.07
2022-09-09T05:38:32.301Z,4.53
2022-09-09T05:40:59.798Z,3.97
2022-09-09T05:43:29.892Z,4.85
2022-09-09T05:48:24.303Z,3.83
2022-09-09T05:50:58.232Z,4.13
2022-09-09T05:53:25.233Z,3.58
2022-09-09T05:55:53.257Z,4.40
2022-09-09T05:58:20.398Z,4.40
2022-09-09T06:00:47.569Z,4.50
2022-09-09T06:03:14.945Z,3.95
2022-09-09T06:05:42.099Z,3.40
2022-09-09T06:08:09.349Z,3.45
2022-09-09T06:10:36.061Z,3.35
2022-09-09T06:13:02.824Z,3.58
2022-09-09T06:15:31.540Z,3.03
2022-09-09T06:17:58.972Z,3.00
2022-09-09T06:20:26.245Z,2.83
2022-09-09T06:22:53.114Z,2.80
2022-09-09T06:25:20.366Z,3.42
2022-09-09T06:27:50.661Z,3.00
2022-09-09T06:30:18.222Z,3.05
2022-09-09T06:32:45.428Z,2.72
2022-09-09T06:35:12.511Z,2.83
2022-09-09T06:37:40.089Z,2.38
2022-09-09T06:40:09.711Z,2.80
2022-09-09T06:42:37.263Z,2.33
2022-09-09T06:45:22.516Z,2.35
2022-09-09T06:47:56.961Z,3.40
2022-09-09T06:50:23.605Z,2.38
2022-09-09T06:52:50.954Z,2.60
2022-09-09T06:55:18.588Z,2.63
2022-09-09T06:57:45.530Z,2.30
2022-09-09T07:00:20.083Z,2.28
2022-09-09T07:02:47.652Z,2.15
2022-09-09T07:05:16.284Z,2.70
2022-09-09T07:07:44.375Z,2.30
2022-09-09T07:10:12.999Z,2.22
2022-09-09T07:12:40.852Z,2.20
2022-09-09T07:15:10.841Z,2.25
2022-09-09T07:17:39.556Z,2.55
2022-09-09T07:20:06.468Z,2.17
2022-09-09T07:22:33.963Z,2.15
2022-09-09T07:25:02.615Z,2.30
2022-09-09T07:27:29.795Z,2.08
2022-09-09T07:29:56.536Z,2.20
2022-09-09T07:32:28.879Z,2.92
2022-09-09T07:34:56.992Z,1.77
2022-09-09T07:37:25.185Z,1.85
2022-09-09T07:39:52.761Z,2.50
2022-09-09T07:42:20.365Z,2.55
2022-09-09T07:44:47.084Z,2.00
2022-09-09T07:47:16.080Z,2.63
2022-09-09T07:52:21.773Z,2.40
2022-09-09T07:54:53.386Z,2.70
2022-09-09T07:57:22.679Z,2.90
2022-09-09T07:59:51.560Z,2.25
2022-09-09T08:02:18.212Z,2.53
2022-09-09T08:04:46.494Z,2.80
2022-09-09T08:07:16.234Z,2.45
2022-09-09T08:09:48.611Z,2.20
2022-09-09T08:12:36.457Z,2.10
2022-09-09T08:15:05.760Z,2.55
2022-09-09T08:17:33.948Z,2.55
2022-09-09T08:20:05.960Z,2.30
2022-09-09T08:22:32.911Z,2.05
2022-09-09T08:25:00.494Z,2.55
2022-09-09T08:27:27.719Z,2.72
2022-09-09T08:29:56.649Z,2.60
2022-09-09T08:32:24.548Z,2.72
2022-09-09T08:34:54.554Z,3.05
2022-09-09T08:37:23.450Z,3.08
2022-09-09T08:39:53.988Z,2.30
2022-09-09T08:42:50.291Z,2.50
2022-09-09T08:46:04.977Z,2.22
2022-09-09T08:49:03.856Z,2.58
2022-09-09T08:51:34.340Z,2.67
2022-09-09T08:54:04.058Z,2.10
2022-09-09T08:56:36.254Z,2.55
2022-09-09T08:59:04.261Z,2.30
2022-09-09T09:02:06.287Z,1.73
2022-09-09T09:05:10.912Z,1.92
2022-09-09T09:07:45.035Z,1.92
2022-09-09T09:10:42.010Z,2.10
2022-09-09T09:13:21.638Z,2.58
2022-09-09T09:15:59.567Z,3.00
2022-09-09T09:18:27.935Z,2.63
2022-09-09T09:21:26.999Z,2.30
2022-09-09T09:23:58.579Z,2.60
2022-09-09T09:26:33.973Z,2.40
2022-09-09T09:29:07.150Z,2.55
2022-09-09T09:31:33.783Z,2.28
2022-09-09T09:34:01.116Z,2.25
2022-09-09T09:37:02.609Z,2.33
2022-09-09T09:42:24.708Z,2.42
2022-09-09T09:44:54.275Z,2.20
2022-09-09T09:47:27.862Z,2.35
2022-09-09T09:50:21.294Z,2.40
2022-09-09T09:52:59.022Z,2.60
2022-09-09T09:55:30.892Z,2.67
2022-09-09T09:58:06.093Z,2.13
2022-09-09T10:00:35.900Z,3.05
2022-09-09T10:03:27.552Z,3.25
2022-09-09T10:05:57.090Z,3.05
2022-09-09T10:08:27.896Z,2.97
2022-09-09T10:10:55.921Z,3.13
2022-09-09T10:13:46.947Z,3.30
2022-09-09T10:16:49.404Z,3.30
2022-09-09T10:19:36.975Z,3.40
2022-09-09T10:22:04.135Z,3.33
2022-09-09T10:24:55.328Z,3.13
2022-09-09T10:27:29.767Z,3.17
2022-09-09T10:30:19.811Z,2.85
2022-09-09T10:32:46.834Z,2.75
2022-09-09T10:35:49.203Z,2.38
2022-09-09T10:38:25.408Z,2.88
2022-09-09T10:40:56.310Z,3.70
2022-09-09T10:43:40.108Z,2.85
2022-09-09T10:46:44.247Z,3.13
2022-09-09T10:49:21.948Z,3.50
2022-09-09T10:52:13.543Z,3.10
2022-09-09T10:55:01.444Z,2.92
2022-09-09T10:57:42.225Z,2.95
2022-09-09T11:00:21.868Z,3.08
2022-09-09T11:02:56.089Z,3.22
2022-09-09T11:05:41.450Z,2.70
2022-09-09T11:11:04.562Z,2.50
2022-09-09T11:13:38.434Z,3.08
2022-09-09T11:16:26.211Z,2.47
2022-09-09T11:19:03.367Z,3.22
2022-09-09T11:21:40.613Z,2.85
2022-09-09T11:24:20.024Z,2.50
2022-09-09T11:29:35.227Z,3.15
2022-09-09T11:32:28.084Z,2.53
2022-09-09T11:35:07.003Z,2.20
2022-09-09T11:37:59.764Z,2.40
2022-09-09T11:40:29.231Z,2.35
2022-09-09T11:43:13.272Z,2.63
2022-09-09T11:45:42.130Z,2.22
2022-09-09T11:48:32.304Z,2.00
2022-09-09T11:51:01.261Z,1.50
2022-09-09T11:53:28.475Z,1.52
2022-09-09T11:56:10.517Z,2.28
2022-09-09T11:58:55.347Z,1.80
2022-09-09T12:01:37.024Z,2.00
2022-09-09T12:04:04.159Z,2.20
2022-09-09T12:06:33.371Z,2.58
2022-09-09T12:09:13.534Z,2.78
2022-09-09T12:11:43.558Z,2.88
2022-09-09T12:16:47.420Z,3.05
2022-09-09T12:19:26.262Z,3.50
2022-09-09T12:22:16.607Z,3.05
2022-09-09T12:24:56.248Z,2.22
2022-09-09T12:27:27.522Z,1.92
2022-09-09T12:30:11.500Z,1.88
2022-09-09T12:32:38.970Z,2.30
2022-09-09T12:35:39.459Z,2.88
2022-09-09T12:38:08.483Z,2.65
2022-09-09T12:40:44.443Z,3.03
2022-09-09T12:43:23.223Z,3.10
2022-09-09T12:45:58.561Z,3.10
2022-09-09T12:48:46.660Z,3.08
2022-09-09T12:51:29.342Z,3.42
2022-09-09T12:53:57.107Z,2.70
2022-09-09T12:56:27.601Z,2.28
2022-09-09T12:58:56.800Z,2.75
2022-09-09T13:01:29.517Z,3.22
2022-09-09T13:03:56.716Z,2.15
2022-09-09T13:06:28.569Z,2.97
2022-09-09T13:09:00.473Z,2.65
2022-09-09T13:11:37.292Z,2.92
2022-09-09T13:14:04.279Z,2.88
2022-09-09T13:16:35.015Z,2.80
2022-09-09T13:19:33.311Z,2.30
2022-09-09T13:22:00.399Z,2.85
2022-09-09T13:24:36.125Z,2.13
2022-09-09T13:27:05.686Z,2.33
2022-09-09T13:29:33.525Z,2.88
2022-09-09T13:32:13.882Z,2.58
2022-09-09T13:34:40.978Z,3.58
2022-09-09T13:37:23.770Z,2.83
2022-09-09T13:39:55.144Z,2.67
2022-09-09T13:42:30.667Z,2.85
2022-09-09T13:44:59.171Z,2.67
2022-09-09T13:47:35.203Z,2.53
2022-09-09T13:50:21.914Z,3.63
2022-09-09T13:52:51.010Z,3.00
2022-09-09T13:55:18.050Z,3.40
2022-09-09T13:57:56.090Z,2.83
2022-09-09T14:00:24.979Z,3.60
2022-09-09T14:02:52.359Z,3.83
2022-09-09T14:05:19.713Z,3.38
2022-09-09T14:07:50.071Z,3.10
2022-09-09T14:10:19.770Z,2.28
2022-09-09T14:12:47.593Z,3.80
2022-09-09T14:15:15.409Z,3.45
2022-09-09T14:17:42.481Z,3.75
2022-09-09T14:20:10.137Z,3.78
2022-09-09T14:22:40.332Z,3.78
2022-09-09T14:25:07.696Z,4.10
2022-09-09T14:27:34.900Z,4.18
2022-09-09T14:30:02.082Z,4.03
2022-09-09T14:32:28.814Z,4.43
2022-09-09T14:34:55.862Z,4.65
2022-09-09T14:37:23.048Z,4.75
2022-09-09T14:39:51.335Z,4.00
2022-09-09T14:42:18.637Z,5.00
2022-09-09T14:44:45.452Z,3.58
2022-09-09T14:47:12.579Z,4.28
2022-09-09T14:49:43.808Z,4.40
2022-09-09T14:52:14.007Z,4.30
2022-09-09T14:54:41.082Z,4.63
2022-09-09T14:57:08.189Z,4.30
2022-09-09T14:59:35.481Z,3.72
2022-09-09T15:02:04.998Z,3.22
2022-09-09T15:04:35.064Z,3.47
2022-09-09T15:09:31.463Z,3.42
2022-09-09T15:12:00.432Z,3.20
2022-09-09T15:14:27.503Z,3.33
2022-09-09T15:16:54.971Z,3.00
2022-09-09T15:19:22.112Z,2.90
2022-09-09T15:21:49.854Z,2.60
2022-09-09T15:24:16.984Z,2.30
2022-09-09T15:26:44.071Z,2.67
2022-09-09T15:29:11.162Z,2.00
2022-09-09T15:31:38.730Z,2.10
2022-09-09T15:34:07.723Z,2.40
2022-09-09T15:36:43.840Z,2.47
2022-09-09T15:39:14.006Z,2.72
2022-09-09T15:41:41.102Z,1.67
2022-09-09T15:44:07.842Z,2.17
2022-09-09T15:46:39.776Z,2.58
2022-09-09T15:49:18.764Z,2.10
2022-09-09T15:51:47.513Z,1.90
2022-09-09T15:54:19.037Z,2.30
2022-09-09T15:56:47.522Z,1.33
2022-09-09T15:59:15.644Z,1.88
2022-09-09T16:01:43.063Z,1.60
2022-09-09T16:04:10.451Z,2.30
2022-09-09T16:06:37.624Z,2.10
2022-09-09T16:09:06.155Z,2.05
2022-09-09T16:11:35.971Z,1.90
2022-09-09T16:14:04.899Z,1.25
2022-09-09T16:16:32.535Z,2.00
2022-09-09T16:19:01.901Z,2.20
2022-09-09T16:21:38.736Z,1.42
2022-09-09T16:24:08.534Z,2.40
2022-09-09T16:26:36.880Z,2.13
2022-09-09T16:29:04.457Z,2.50
2022-09-09T16:31:33.097Z,2.00
2022-09-09T16:34:00.128Z,2.80
2022-09-09T16:36:33.946Z,2.50
2022-09-09T16:39:07.271Z,2.17
2022-09-09T16:41:34.911Z,2.17
2022-09-09T16:44:04.747Z,2.22
2022-09-09T16:46:33.756Z,2.40
2022-09-09T16:49:01.656Z,2.05
2022-09-09T16:51:31.127Z,2.30
2022-09-09T16:54:00.362Z,2.10
2022-09-09T16:56:29.631Z,2.42
2022-09-09T16:58:58.864Z,2.67
2022-09-09T17:01:27.482Z,2.53
2022-09-09T17:04:01.908Z,2.10
2022-09-09T17:06:35.421Z,2.15
2022-09-09T17:09:04.843Z,2.50
2022-09-09T17:11:31.981Z,2.90
2022-09-09T17:14:01.046Z,2.70
2022-09-09T17:16:30.604Z,3.10
2022-09-09T17:18:59.534Z,2.95
2022-09-09T17:21:27.894Z,3.05
2022-09-09T17:23:55.996Z,3.15
2022-09-09T17:26:24.812Z,3.30
2022-09-09T17:28:56.191Z,3.40
2022-09-09T17:31:26.758Z,3.10
2022-09-09T17:33:53.887Z,3.38
2022-09-09T17:36:27.419Z,3.63
2022-09-09T17:38:54.871Z,3.80
2022-09-09T17:41:28.562Z,3.47
2022-09-09T17:43:56.242Z,4.35
2022-09-09T17:46:26.460Z,4.00
2022-09-09T17:48:58.118Z,3.70
2022-09-09T17:51:34.250Z,3.80
2022-09-09T17:54:13.762Z,3.42
2022-09-09T17:56:45.244Z,3.60
2022-09-09T17:59:13.472Z,4.00
2022-09-09T18:01:44.751Z,4.13
2022-09-09T18:04:15.730Z,3.88
2022-09-09T18:06:48.594Z,3.97
2022-09-09T18:09:21.439Z,4.78
2022-09-09T18:11:54.275Z,4.10
2022-09-09T18:14:24.832Z,4.15
2022-09-09T18:16:51.985Z,4.22
2022-09-09T18:19:21.420Z,4.25
2022-09-09T18:21:49.286Z,4.40
2022-09-09T18:24:17.676Z,4.13
2022-09-09T18:26:45.472Z,3.45
2022-09-09T18:29:15.794Z,3.83
2022-09-09T18:31:42.967Z,2.70
2022-09-09T18:34:12.345Z,3.42
2022-09-09T18:36:47.463Z,2.92
2022-09-09T18:39:17.411Z,3.20
2022-09-09T18:41:47.732Z,3.20
2022-09-09T18:44:20.484Z,3.45
2022-09-09T18:46:48.269Z,3.05
2022-09-09T18:49:15.636Z,3.40
2022-09-09T18:51:46.363Z,3.80
2022-09-09T18:54:22.607Z,3.10
2022-09-09T18:59:20.360Z,3.67
2022-09-09T19:01:50.391Z,4.03
2022-09-09T19:04:17.930Z,3.53
2022-09-09T19:06:47.350Z,3.70
2022-09-09T19:09:16.715Z,4.03
2022-09-09T19:11:44.271Z,3.53
2022-09-09T19:14:14.385Z,3.60
2022-09-09T19:16:41.567Z,3.75
2022-09-09T19:19:14.831Z,3.90
2022-09-09T19:21:42.120Z,4.25
2022-09-09T19:24:15.754Z,4.03
2022-09-09T19:26:45.624Z,3.92
2022-09-09T19:29:21.302Z,4.30
2022-09-09T19:32:18.618Z,4.07
2022-09-09T19:34:36.344Z,4.40
2022-09-09T19:37:03.411Z,4.15
2022-09-09T19:39:31.367Z,4.72
2022-09-09T19:41:58.017Z,4.43
2022-09-09T19:44:25.056Z,4.75
2022-09-09T19:46:52.586Z,5.00
2022-09-09T19:49:19.755Z,4.22
2022-09-09T19:51:47.121Z,4.57
2022-09-09T19:54:14.137Z,4.60
2022-09-09T19:56:42.311Z,5.20
2022-09-09T19:59:10.726Z,4.65
2022-09-09T20:01:44.879Z,5.00
2022-09-09T20:04:13.842Z,4.35
2022-09-09T20:06:44.127Z,4.38
2022-09-09T20:09:17.103Z,4.88
2022-09-09T20:11:45.669Z,4.38
2022-09-09T20:14:12.920Z,4.43
2022-09-09T20:16:40.135Z,4.00
2022-09-09T20:19:08.078Z,4.90
2022-09-09T20:21:38.196Z,4.90
2022-09-09T20:26:40.798Z,4.93
2022-09-09T20:29:15.803Z,4.53
2022-09-09T20:31:44.008Z,4.57
2022-09-09T20:34:15.769Z,4.88
2022-09-09T20:36:42.929Z,5.15
2022-09-09T20:39:19.652Z,5.10
2022-09-09T20:41:47.168Z,5.25
2022-09-09T20:44:20.097Z,4.85
2022-09-09T20:46:49.012Z,4.72
2022-09-09T20:49:17.932Z,4.70
2022-09-09T20:51:45.801Z,4.65
2022-09-09T20:54:15.771Z,4.80
2022-09-09T20:56:44.393Z,5.00
2022-09-09T20:59:23.441Z,4.20
2022-09-09T21:01:50.877Z,4.63
2022-09-09T21:04:19.616Z,4.95
2022-09-09T21:06:47.387Z,4.97
2022-09-09T21:09:14.434Z,5.38
2022-09-09T21:11:42.241Z,4.90
2022-09-09T21:14:09.686Z,5.22
2022-09-09T21:16:36.995Z,5.88
2022-09-09T21:19:04.510Z,5.57
2022-09-09T21:21:31.823Z,5.53
2022-09-09T21:24:00.409Z,5.78
2022-09-09T21:26:27.746Z,5.38
2022-09-09T21:28:55.798Z,5.75
2022-09-09T21:31:27.727Z,5.40
2022-09-09T21:33:58.492Z,5.78
2022-09-09T21:38:52.674Z,5.30
2022-09-09T21:41:19.741Z,5.82
2022-09-09T21:43:47.142Z,6.18
2022-09-09T21:46:16.308Z,6.00
2022-09-09T21:48:43.508Z,5.72
2022-09-09T21:51:14.286Z,5.05
2022-09-09T21:53:41.363Z,5.25
2022-09-09T21:56:11.245Z,5.90
2022-09-09T21:58:38.608Z,6.70
2022-09-09T22:01:14.563Z,7.40
2022-09-09T22:03:42.561Z,7.50
2022-09-09T22:06:12.168Z,6.03
2022-09-09T22:08:39.348Z,7.15
2022-09-09T22:11:11.808Z,6.10
2022-09-09T22:13:39.281Z,7.28
2022-09-09T22:16:11.303Z,8.85
2022-09-09T22:18:38.213Z,8.55
2022-09-09T22:21:15.846Z,8.30
2022-09-09T22:23:51.059Z,8.20
2022-09-09T22:26:17.669Z,7.93
2022-09-09T22:28:44.896Z,9.55
2022-09-09T22:31:12.147Z,8.57
2022-09-09T22:33:39.277Z,6.47
2022-09-09T22:36:06.364Z,8.85
2022-09-09T22:38:35.271Z,10.43
2022-09-09T22:41:03.111Z,10.07
2022-09-09T22:43:33.018Z,11.43
2022-09-09T22:46:03.732Z,13.10
2022-09-09T22:48:35.153Z,12.07
2022-09-09T22:51:06.795Z,11.73
2022-09-09T22:53:36.029Z,12.52
2022-09-09T22:56:05.036Z,13.60
2022-09-09T22:58:34.508Z,14.82
2022-09-09T23:01:07.257Z,11.45
2022-09-09T23:03:34.466Z,14.20
2022-09-09T23:06:02.352Z,13.77
2022-09-09T23:08:35.759Z,12.52
2022-09-09T23:11:10.974Z,11.27
2022-09-09T23:13:42.987Z,12.50
2022-09-09T23:16:14.770Z,12.90
2022-09-09T23:18:41.827Z,12.13
2022-09-09T23:21:11.276Z,11.75
2022-09-09T23:23:39.104Z,12.93
2022-09-09T23:26:06.986Z,12.00
2022-09-09T23:28:35.458Z,13.25
2022-09-09T23:31:03.458Z,13.10
2022-09-09T23:33:30.867Z,12.75
2022-09-09T23:36:11.354Z,13.38
2022-09-09T23:38:39.370Z,10.38
2022-09-09T23:41:09.103Z,11.80
2022-09-09T23:43:44.433Z,12.32
2022-09-09T23:46:14.773Z,11.82
2022-09-09T23:48:42.236Z,12.40
2022-09-09T23:51:17.295Z,11.82
2022-09-09T23:53:45.567Z,11.10
2022-09-09T23:56:12.677Z,10.45
2022-09-09T23:58:40.919Z,9.00
